Time;durP1;ratioP1;P1;durP2;ratioP2;P2;SDS_P1;SDS_P2;PMS_P1;PMS_P2;Temp;Humidity;BMP_temperature;BMP_pressure;BME280_temperature;BME280_humidity;BME280_pressure;Samples;Min_cycle;Max_cycle;Signal;HPM_P1;HPM_P2
2023/02/13 00:02:24;;;;;;;19.70;9.05;;;;;;;-2.05;100.00;99164.03;5055699;28;20103;-59
2023/02/13 00:04:50;;;;;;;16.98;7.88;;;;;;;-2.10;100.00;99170.53;5055255;28;20543;-59
2023/02/13 00:07:17;;;;;;;18.13;9.70;;;;;;;-2.14;100.00;99166.47;5056242;28;20048;-57
2023/02/13 00:09:43;;;;;;;18.65;10.35;;;;;;;-2.07;100.00;99172.09;5053832;28;20041;-56
2023/02/13 00:12:10;;;;;;;21.52;10.52;;;;;;;-2.22;100.00;99169.75;5056771;28;20040;-56
2023/02/13 00:14:38;;;;;;;16.48;9.52;;;;;;;-2.10;100.00;99167.06;5052713;28;20041;-58
2023/02/13 00:17:05;;;;;;;22.08;10.70;;;;;;;-1.92;100.00;99159.38;5058301;28;20500;-58
2023/02/13 00:19:32;;;;;;;20.10;10.55;;;;;;;-1.94;100.00;99171.94;5054605;28;21636;-58
2023/02/13 00:21:58;;;;;;;19.88;9.75;;;;;;;-1.75;100.00;99165.09;5059155;28;20072;-57
2023/02/13 00:24:25;;;;;;;18.58;10.50;;;;;;;-1.70;100.00;99155.78;5053586;28;20029;-58
2023/02/13 00:26:52;;;;;;;21.65;10.45;;;;;;;-1.76;100.00;99158.97;5057598;28;21469;-57
2023/02/13 00:29:18;;;;;;;18.63;10.23;;;;;;;-1.93;100.00;99160.34;5053244;28;20167;-57
2023/02/13 00:31:45;;;;;;;21.42;11.00;;;;;;;-2.17;100.00;99158.78;5056390;28;20043;-57
2023/02/13 00:34:12;;;;;;;19.13;10.02;;;;;;;-2.13;100.00;99157.53;5055096;28;20126;-57
2023/02/13 00:36:39;;;;;;;22.52;11.77;;;;;;;-2.12;100.00;99161.88;5057348;28;20045;-58
2023/02/13 00:39:05;;;;;;;22.63;10.27;;;;;;;-2.01;100.00;99158.34;5059017;28;20047;-58
2023/02/13 00:41:32;;;;;;;20.05;10.02;;;;;;;-1.97;100.00;99157.13;5057294;28;21130;-58
2023/02/13 00:43:58;;;;;;;22.25;10.50;;;;;;;-1.86;100.00;99160.69;5055570;28;20040;-58
2023/02/13 00:46:25;;;;;;;23.02;10.85;;;;;;;-1.73;100.00;99163.19;5056757;28;20111;-58
2023/02/13 00:48:52;;;;;;;21.40;10.30;;;;;;;-1.71;100.00;99155.91;5051444;28;20611;-59
2023/02/13 00:51:18;;;;;;;19.60;9.85;;;;;;;-1.70;100.00;99158.44;5054605;28;20067;-59
2023/02/13 00:53:45;;;;;;;19.27;10.23;;;;;;;-1.82;100.00;99164.78;5056193;28;20040;-59
2023/02/13 00:56:13;;;;;;;20.65;10.27;;;;;;;-2.00;100.00;99162.69;5055555;28;20056;-59
2023/02/13 00:58:43;;;;;;;20.15;10.38;;;;;;;-1.96;100.00;99161.44;5052904;28;20696;-59
2023/02/13 01:01:10;;;;;;;18.65;9.20;;;;;;;-1.75;100.00;99165.09;5054401;28;20423;-59
2023/02/13 01:03:36;;;;;;;18.27;9.55;;;;;;;-1.68;100.00;99162.78;5051915;28;20033;-58
2023/02/13 01:06:03;;;;;;;20.73;10.63;;;;;;;-1.85;100.00;99155.25;5056646;28;20086;-59
2023/02/13 01:08:30;;;;;;;18.05;9.73;;;;;;;-1.94;100.00;99161.31;5052319;28;20047;-57
2023/02/13 01:10:57;;;;;;;17.75;9.02;;;;;;;-1.93;100.00;99164.81;5051939;28;20115;-59
2023/02/13 01:13:25;;;;;;;19.73;10.02;;;;;;;-1.78;100.00;99160.88;5054388;28;20047;-58
2023/02/13 01:15:52;;;;;;;19.52;10.52;;;;;;;-1.89;100.00;99163.59;5055371;28;20049;-58
2023/02/13 01:18:19;;;;;;;23.42;10.95;;;;;;;-2.03;100.00;99157.59;5050655;28;20041;-57
2023/02/13 01:20:59;;;;;;;18.42;9.23;;;;;;;-2.23;100.00;99151.28;5053101;28;20108;-55
2023/02/13 01:23:30;;;;;;;19.45;10.02;;;;;;;-2.32;100.00;99154.69;5066341;28;20045;-59
2023/02/13 01:25:56;;;;;;;24.40;10.57;;;;;;;-2.40;100.00;99150.84;5053175;28;20041;-58
2023/02/13 01:28:23;;;;;;;23.67;11.88;;;;;;;-2.40;100.00;99153.50;5057845;28;20560;-55
2023/02/13 01:30:55;;;;;;;22.60;12.55;;;;;;;-2.43;100.00;99151.09;5054679;28;20436;-57
2023/02/13 01:33:24;;;;;;;23.33;11.50;;;;;;;-2.53;100.00;99150.16;5057544;28;20086;-58
2023/02/13 01:35:51;;;;;;;29.05;13.02;;;;;;;-2.59;100.00;99148.84;5058648;28;20045;-57
2023/02/13 01:38:17;;;;;;;22.23;11.23;;;;;;;-2.75;100.00;99146.59;5061564;28;20460;-55
2023/02/13 01:40:51;;;;;;;26.10;12.07;;;;;;;-2.66;100.00;99147.66;5061885;28;20076;-57
2023/02/13 01:43:22;;;;;;;27.10;11.65;;;;;;;-2.64;100.00;99151.88;5057514;28;20043;-58
2023/02/13 01:45:55;;;;;;;24.97;12.40;;;;;;;-2.68;100.00;99144.28;5059890;28;20071;-56
2023/02/13 01:48:25;;;;;;;29.77;12.60;;;;;;;-2.66;100.00;99150.31;5056739;28;20291;-58
2023/02/13 01:50:57;;;;;;;26.85;13.15;;;;;;;-2.66;100.00;99151.16;5055956;28;20454;-59
2023/02/13 01:53:27;;;;;;;27.58;14.23;;;;;;;-2.58;100.00;99149.69;5059750;28;20037;-58
2023/02/13 01:56:12;;;;;;;28.70;12.80;;;;;;;-2.58;100.00;99157.66;5055244;28;20044;-59
2023/02/13 01:58:43;;;;;;;26.60;12.93;;;;;;;-2.64;100.00;99148.38;5053362;28;20040;-59
2023/02/13 02:01:10;;;;;;;26.05;12.40;;;;;;;-2.75;100.00;99150.09;5057465;28;20075;-56
2023/02/13 02:03:42;;;;;;;29.30;13.13;;;;;;;-2.80;100.00;99162.84;5057190;28;20070;-58
2023/02/13 02:06:17;;;;;;;23.20;11.95;;;;;;;-2.76;100.00;99158.16;5053400;28;20057;-59
2023/02/13 02:08:47;;;;;;;24.60;12.60;;;;;;;-2.78;100.00;99158.28;5049994;28;20072;-59
2023/02/13 02:11:29;;;;;;;25.05;11.63;;;;;;;-2.83;100.00;99160.47;5059828;28;20044;-57
2023/02/13 02:13:57;;;;;;;26.00;12.90;;;;;;;-2.81;100.00;99152.34;5059550;28;20571;-59
2023/02/13 02:16:32;;;;;;;25.08;13.55;;;;;;;-2.83;100.00;99152.50;5057237;28;20642;-58
2023/02/13 02:19:03;;;;;;;25.60;13.00;;;;;;;-2.89;100.00;99151.19;5053779;28;20069;-59
2023/02/13 02:22:06;;;;;;;25.25;11.85;;;;;;;-2.87;100.00;99151.06;5056483;28;20041;-59
2023/02/13 02:24:57;;;;;;;24.92;13.23;;;;;;;-2.94;100.00;99153.34;5053843;28;20037;-57
2023/02/13 02:27:57;;;;;;;24.65;11.50;;;;;;;-2.90;100.00;99160.09;5058228;28;20472;-58
2023/02/13 02:30:38;;;;;;;31.80;12.65;;;;;;;-2.95;100.00;99149.00;5051530;28;20045;-57
2023/02/13 02:33:14;;;;;;;23.17;11.63;;;;;;;-2.99;100.00;99146.72;5056048;28;20515;-58
2023/02/13 02:35:46;;;;;;;30.10;13.30;;;;;;;-2.96;100.00;99149.09;5054572;28;20040;-58
2023/02/13 02:38:20;;;;;;;;;;;;;;;-2.93;100.00;99146.22;5063014;28;20040;-57
2023/02/13 02:41:01;;;;;;;28.15;12.68;;;;;;;-2.94;100.00;99137.44;5057542;28;19928;-59
2023/02/13 02:43:50;;;;;;;24.13;10.90;;;;;;;-2.95;100.00;99140.22;5059153;28;20036;-59
2023/02/13 02:46:21;;;;;;;24.42;12.63;;;;;;;-3.01;100.00;99137.09;5056831;28;20269;-58
2023/02/13 02:51:59;;;;;;;22.10;11.73;;;;;;;-2.90;100.00;99141.53;5058702;28;20039;-57
2023/02/13 02:55:16;;;;;;;28.55;12.50;;;;;;;-2.98;100.00;99136.00;5064712;28;20041;-59
2023/02/13 03:06:22;;;;;;;25.45;12.75;;;;;;;-2.98;100.00;99141.31;5051976;28;20040;-56
2023/02/13 03:14:29;;;;;;;26.95;12.23;;;;;;;-3.19;100.00;99141.16;5061231;28;20593;-58
2023/02/13 03:23:01;;;;;;;25.83;13.38;;;;;;;-3.05;100.00;99142.75;5058995;28;20524;-57
2023/02/13 03:25:52;;;;;;;32.80;13.98;;;;;;;-3.02;100.00;99153.13;5059223;28;20283;-57
2023/02/13 03:31:27;;;;;;;32.40;13.68;;;;;;;-2.96;100.00;99144.66;5056039;28;20570;-59
2023/02/13 03:34:01;;;;;;;33.65;15.38;;;;;;;-2.95;100.00;99145.50;5052596;28;20448;-58
2023/02/13 03:40:01;;;;;;;38.50;16.58;;;;;;;-2.74;100.00;99145.59;5053041;28;20128;-59
2023/02/13 03:42:46;;;;;;;42.00;15.98;;;;;;;-2.77;100.00;99149.34;5054241;28;20072;-59
2023/02/13 03:50:04;;;;;;;38.80;15.52;;;;;;;-2.79;100.00;99153.09;5056429;28;20047;-59
2023/02/13 03:50:58;;;;;;;37.40;14.02;;;;;;;-2.67;100.00;99153.91;5054971;28;20041;-59
2023/02/13 03:53:30;;;;;;;38.78;16.98;;;;;;;-2.70;100.00;99160.31;5057719;28;20064;-58
2023/02/13 04:01:35;;;;;;;40.40;15.43;;;;;;;-2.71;100.00;99161.28;5062162;28;20107;-59
2023/02/13 04:04:14;;;;;;;37.30;15.32;;;;;;;-2.72;100.00;99169.34;5057977;28;20037;-57
2023/02/13 04:06:50;;;;;;;38.95;15.27;;;;;;;-2.87;100.00;99167.78;5050454;28;20132;-59
2023/02/13 04:09:17;;;;;;;35.22;15.10;;;;;;;-2.99;100.00;99171.41;5055922;28;20075;-59
2023/02/13 04:12:01;;;;;;;37.22;14.68;;;;;;;-2.85;100.00;99175.63;5051103;28;20071;-59
2023/02/13 04:14:37;;;;;;;32.13;14.13;;;;;;;-2.91;100.00;99176.94;5056299;28;20040;-59
2023/02/13 04:17:09;;;;;;;34.47;14.75;;;;;;;-2.80;100.00;99176.09;5057235;28;20548;-58
2023/02/13 04:19:36;;;;;;;28.05;12.90;;;;;;;-2.78;100.00;99174.19;5056504;28;20044;-59
2023/02/13 04:22:02;;;;;;;35.00;13.23;;;;;;;-2.68;100.00;99168.16;5054992;28;20107;-58
2023/02/13 04:24:29;;;;;;;30.98;14.27;;;;;;;-2.61;100.00;99172.00;5060385;28;20131;-58
2023/02/13 04:26:56;;;;;;;30.98;14.30;;;;;;;-2.80;100.00;99170.78;5054972;28;20041;-58
2023/02/13 04:29:25;;;;;;;27.25;13.45;;;;;;;-2.85;100.00;99172.97;5057199;28;20032;-57
2023/02/13 04:31:51;;;;;;;32.40;15.38;;;;;;;-2.90;100.00;99177.81;5054375;28;20120;-57
2023/02/13 04:34:18;;;;;;;36.20;15.98;;;;;;;-2.98;100.00;99173.13;5058747;28;20101;-57
2023/02/13 04:36:45;;;;;;;29.02;13.85;;;;;;;-2.85;100.00;99180.94;5056322;28;20037;-57
2023/02/13 04:39:12;;;;;;;28.60;13.93;;;;;;;-2.82;100.00;99172.75;5056251;28;20052;-58
2023/02/13 04:41:38;;;;;;;29.63;13.60;;;;;;;-2.73;100.00;99179.09;5051027;28;20058;-57
2023/02/13 04:44:05;;;;;;;31.10;13.90;;;;;;;-2.77;100.00;99172.34;5057103;28;20037;-57
2023/02/13 04:46:31;;;;;;;33.63;13.77;;;;;;;-2.79;100.00;99171.66;5054151;28;20119;-58
2023/02/13 04:48:57;;;;;;;29.83;13.40;;;;;;;-2.81;100.00;99176.22;5057490;28;20044;-57
2023/02/13 04:51:24;;;;;;;31.23;13.95;;;;;;;-2.83;100.00;99180.81;5054517;28;20539;-58
2023/02/13 04:53:50;;;;;;;37.33;16.08;;;;;;;-2.91;100.00;99192.84;5058590;28;20036;-59
2023/02/13 04:56:17;;;;;;;34.55;13.98;;;;;;;-2.98;100.00;99188.16;5055395;28;20452;-59
2023/02/13 04:58:45;;;;;;;28.33;13.02;;;;;;;-3.06;100.00;99186.13;5052938;28;20032;-58
2023/02/13 05:01:13;;;;;;;39.78;16.20;;;;;;;-3.01;100.00;99186.59;5056876;28;20080;-59
2023/02/13 05:03:40;;;;;;;30.63;13.80;;;;;;;-2.91;100.00;99178.78;5055666;28;20052;-59
2023/02/13 05:06:07;;;;;;;30.85;14.57;;;;;;;-3.23;100.00;99177.66;5055699;28;20041;-58
2023/02/13 05:08:34;;;;;;;27.98;13.43;;;;;;;-3.34;100.00;99175.00;5057212;28;20048;-58
2023/02/13 05:11:01;;;;;;;37.05;15.57;;;;;;;-3.44;100.00;99185.44;5059979;28;20045;-59
2023/02/13 05:13:27;;;;;;;33.65;14.60;;;;;;;-3.28;100.00;99179.84;5060949;28;20040;-56
2023/02/13 05:15:54;;;;;;;26.05;12.38;;;;;;;-3.13;100.00;99178.63;5061226;28;20041;-59
2023/02/13 05:18:20;;;;;;;29.15;13.10;;;;;;;-3.06;100.00;99178.16;5055362;28;20170;-58
2023/02/13 05:23:21;;;;;;;27.13;13.27;;;;;;;-3.13;100.00;99180.44;5053877;28;20065;-59
2023/02/13 05:23:36;;;;;;;34.70;15.25;;;;;;;-3.15;100.00;99180.56;5059965;28;20078;-58
2023/02/13 05:26:03;;;;;;;30.45;15.35;;;;;;;-3.22;100.00;99178.50;5058016;28;20198;-59
2023/02/13 05:31:14;;;;;;;28.63;13.65;;;;;;;-3.05;100.00;99178.06;5062475;28;20155;-59
2023/02/13 05:33:41;;;;;;;30.40;13.70;;;;;;;-2.84;100.00;99177.31;5051810;28;20037;-59
2023/02/13 05:36:07;;;;;;;36.83;14.45;;;;;;;-2.87;100.00;99174.91;5058173;28;20534;-58
2023/02/13 05:38:34;;;;;;;34.22;15.13;;;;;;;-2.86;100.00;99171.28;5060112;28;20082;-58
2023/02/13 05:41:01;;;;;;;30.70;14.63;;;;;;;-3.01;100.00;99186.59;5054541;28;20111;-58
2023/02/13 05:43:28;;;;;;;32.55;14.32;;;;;;;-3.05;100.00;99179.84;5057397;28;20045;-59
2023/02/13 05:46:07;;;;;;;32.38;12.88;;;;;;;-2.98;100.00;99185.50;5055856;28;20569;-58
2023/02/13 05:48:34;;;;;;;30.45;14.93;;;;;;;-3.18;100.00;99180.78;5059041;28;20109;-59
2023/02/13 05:51:01;;;;;;;31.58;14.90;;;;;;;-3.22;100.00;99178.50;5059536;28;20106;-59
2023/02/13 05:53:28;;;;;;;32.40;14.95;;;;;;;-3.14;100.00;99173.44;5059675;28;20040;-58
2023/02/13 05:55:55;;;;;;;31.55;16.17;;;;;;;-3.28;100.00;99172.72;5058899;28;20419;-59
2023/02/13 05:58:21;;;;;;;33.00;15.75;;;;;;;-3.33;100.00;99172.22;5061616;28;20068;-57
2023/02/13 06:00:48;;;;;;;35.65;16.77;;;;;;;-3.42;100.00;99180.88;5061905;28;20042;-58
2023/02/13 06:03:14;;;;;;;30.67;15.15;;;;;;;-3.33;100.00;99174.88;5061863;28;20321;-58
2023/02/13 06:05:41;;;;;;;35.03;15.45;;;;;;;-3.24;100.00;99175.13;5053403;28;20086;-58
2023/02/13 06:08:07;;;;;;;33.00;15.77;;;;;;;-3.21;100.00;99174.91;5058635;28;20479;-59
2023/02/13 06:10:34;;;;;;;35.90;14.80;;;;;;;-3.12;100.00;99174.19;5057250;28;20672;-58
2023/02/13 06:13:00;;;;;;;37.70;15.32;;;;;;;-3.01;100.00;99178.66;5056079;28;20049;-57
2023/02/13 06:15:27;;;;;;;34.83;15.23;;;;;;;-3.03;100.00;99172.59;5052122;28;20049;-56
2023/02/13 06:17:53;;;;;;;36.95;16.35;;;;;;;-3.14;100.00;99165.50;5060251;28;20175;-58
2023/02/13 06:20:20;;;;;;;32.15;15.65;;;;;;;-3.30;100.00;99177.28;5053001;28;20529;-54
2023/02/13 06:22:48;;;;;;;32.53;14.82;;;;;;;-3.18;100.00;99172.00;5059836;28;20468;-59
2023/02/13 06:25:15;;;;;;;38.28;16.08;;;;;;;-3.19;100.00;99175.59;5057488;28;20073;-59
2023/02/13 06:27:41;;;;;;;33.03;14.88;;;;;;;-3.41;100.00;99171.97;5061917;28;20472;-58
2023/02/13 06:30:09;;;;;;;30.77;14.13;;;;;;;-3.35;100.00;99178.59;5053524;28;20048;-59
2023/02/13 06:32:35;;;;;;;34.10;16.00;;;;;;;-3.31;100.00;99177.41;5056106;28;20045;-58
2023/02/13 06:35:02;;;;;;;30.13;14.18;;;;;;;-3.22;100.00;99178.50;5052574;28;20063;-57
2023/02/13 06:37:31;;;;;;;33.45;15.13;;;;;;;-3.13;100.00;99172.50;5059727;28;20048;-58
2023/02/13 06:39:57;;;;;;;28.48;14.02;;;;;;;-3.14;100.00;99171.66;5062268;28;20127;-59
2023/02/13 06:42:24;;;;;;;26.38;14.32;;;;;;;-3.11;100.00;99170.56;5055259;28;20045;-59
2023/02/13 06:44:50;;;;;;;34.28;15.23;;;;;;;-3.19;100.00;99168.50;5060277;28;20049;-56
2023/02/13 06:47:17;;;;;;;30.42;14.70;;;;;;;-3.36;100.00;99169.81;5052118;28;20045;-58
2023/02/13 06:49:43;;;;;;;29.92;13.68;;;;;;;-3.34;100.00;99169.69;5053338;28;20040;-58
2023/02/13 06:52:10;;;;;;;29.33;16.17;;;;;;;-3.38;100.00;99171.75;5057243;28;20044;-58
2023/02/13 06:54:36;;;;;;;30.17;15.95;;;;;;;-3.31;100.00;99172.13;5053589;28;20048;-55
2023/02/13 06:57:14;;;;;;;25.77;14.65;;;;;;;-3.26;100.00;99169.94;5054776;28;20130;-59
2023/02/13 06:59:41;;;;;;;36.05;14.77;;;;;;;-3.24;100.00;99169.84;5054691;28;20040;-59
2023/02/13 07:02:11;;;;;;;31.15;15.75;;;;;;;-3.23;100.00;99176.81;5055765;28;20048;-58
2023/02/13 07:04:38;;;;;;;32.10;14.90;;;;;;;-3.20;100.00;99179.22;5058453;28;20101;-58
2023/02/13 07:07:04;;;;;;;31.60;15.30;;;;;;;-3.18;100.00;99178.16;5060326;28;20098;-59
2023/02/13 07:09:32;;;;;;;33.92;15.57;;;;;;;-3.11;100.00;99175.88;5055875;28;20055;-58
2023/02/13 07:12:02;;;;;;;30.27;15.25;;;;;;;-3.06;100.00;99184.28;5058007;28;20072;-59
2023/02/13 07:14:28;;;;;;;35.20;15.43;;;;;;;-2.90;100.00;99180.44;5054119;28;20047;-58
2023/02/13 07:16:56;;;;;;;37.35;16.27;;;;;;;-2.85;100.00;99186.22;5053744;28;20369;-57
2023/02/13 07:19:22;;;;;;;32.53;15.98;;;;;;;-2.98;100.00;99191.66;5054647;28;20550;-57
2023/02/13 07:21:49;;;;;;;34.90;17.20;;;;;;;-2.90;100.00;99191.06;5052814;28;20495;-56
2023/02/13 07:24:15;;;;;;;42.72;19.05;;;;;;;-2.99;100.00;99205.84;5056521;28;20100;-59
2023/02/13 07:26:42;;;;;;;32.58;15.68;;;;;;;-2.98;100.00;99190.81;5055837;28;20052;-57
2023/02/13 07:29:08;;;;;;;37.55;16.35;;;;;;;-2.89;100.00;99195.38;5058445;28;20048;-59
2023/02/13 07:31:38;;;;;;;33.30;15.43;;;;;;;-2.87;100.00;99193.47;5058730;28;20124;-56
2023/02/13 07:34:04;;;;;;;34.88;17.00;;;;;;;-2.78;100.00;99191.88;5055962;28;20052;-57
2023/02/13 07:36:31;;;;;;;32.15;16.40;;;;;;;-2.77;100.00;99199.72;5058316;28;20462;-57
2023/02/13 07:38:58;;;;;;;33.70;16.60;;;;;;;-2.71;100.00;99195.75;5063843;28;20068;-57
2023/02/13 07:41:25;;;;;;;42.85;19.40;;;;;;;-2.66;100.00;99198.88;5061006;28;20048;-57
2023/02/13 07:43:53;;;;;;;37.92;18.80;;;;;;;-2.55;100.00;99199.84;5055181;28;20048;-58
2023/02/13 07:46:19;;;;;;;49.42;19.48;;;;;;;-2.36;100.00;99200.03;5055245;28;20090;-58
2023/02/13 07:48:46;;;;;;;42.50;19.25;;;;;;;-2.30;100.00;99204.03;5055877;28;20068;-58
2023/02/13 07:51:12;;;;;;;41.83;17.33;;;;;;;-2.28;100.00;99198.59;5056260;28;20049;-59
2023/02/13 07:53:39;;;;;;;38.40;19.42;;;;;;;-2.15;100.00;99193.13;5059274;28;20110;-57
2023/02/13 07:56:06;;;;;;;32.88;17.00;;;;;;;-2.16;100.00;99192.28;5054202;28;20467;-57
2023/02/13 07:58:34;;;;;;;34.55;16.95;;;;;;;-1.87;100.00;99193.53;5053547;28;20090;-58
2023/02/13 08:01:08;;;;;;;36.75;17.48;;;;;;;-1.72;100.00;99192.25;5056131;28;20045;-57
2023/02/13 08:03:35;;;;;;;33.65;17.58;;;;;;;-1.72;100.00;99183.44;5052579;28;20753;-56
2023/02/13 08:06:02;;;;;;;35.55;15.90;;;;;;;-1.65;100.00;99189.09;5051052;28;20045;-59
2023/02/13 08:08:28;;;;;;;35.75;16.58;;;;;;;-1.54;100.00;99190.84;5056919;28;20119;-59
2023/02/13 08:13:42;;;;;;;32.00;16.40;;;;;;;-1.20;100.00;99180.88;5057324;28;20149;-58
2023/02/13 08:16:08;;;;;;;34.28;16.02;;;;;;;-0.99;100.00;99185.28;5057499;28;20047;-59
2023/02/13 08:18:35;;;;;;;30.17;15.52;;;;;;;-0.99;100.00;99185.28;5057996;28;20071;-56
2023/02/13 08:21:02;;;;;;;31.77;16.38;;;;;;;-0.87;100.00;99187.88;5051810;28;20048;-57
2023/02/13 08:23:28;;;;;;;23.33;14.25;;;;;;;-0.73;100.00;99176.88;5058431;28;20136;-59
2023/02/13 08:25:59;;;;;;;34.65;15.50;;;;;;;-0.57;100.00;99186.16;5060399;28;20067;-58
2023/02/13 08:28:27;;;;;;;24.70;13.73;;;;;;;-0.30;100.00;99179.34;5058479;28;20037;-58
2023/02/13 08:30:54;;;;;;;29.33;13.77;;;;;;;-0.11;100.00;99177.72;5053677;28;20059;-57
2023/02/13 08:33:21;;;;;;;31.42;13.52;;;;;;;0.07;100.00;99178.72;5050147;28;20044;-59
2023/02/13 08:35:47;;;;;;;22.63;12.02;;;;;;;0.28;100.00;99174.22;5051242;28;20064;-58
2023/02/13 08:38:14;;;;;;;23.25;11.52;;;;;;;0.54;100.00;99174.50;5055179;28;20049;-57
2023/02/13 08:40:40;;;;;;;21.48;11.15;;;;;;;0.67;100.00;99174.19;5059540;28;20168;-58
2023/02/13 08:43:07;;;;;;;26.00;11.70;;;;;;;0.82;100.00;99173.75;5060930;28;20612;-57
2023/02/13 08:45:34;;;;;;;22.65;11.05;;;;;;;0.93;100.00;99168.25;5065643;28;20094;-58
2023/02/13 08:48:02;;;;;;;19.45;11.00;;;;;;;1.06;100.00;99162.56;5060093;28;20103;-58
2023/02/13 08:50:29;;;;;;;20.00;9.98;;;;;;;1.17;100.00;99170.41;5065877;28;20492;-57
2023/02/13 08:52:57;;;;;;;23.60;11.15;;;;;;;1.30;100.00;99166.56;5062181;28;20688;-57
2023/02/13 08:55:23;;;;;;;22.73;10.63;;;;;;;1.40;100.00;99163.84;5062360;28;20070;-57
2023/02/13 08:57:50;;;;;;;22.63;10.77;;;;;;;1.45;100.00;99161.56;5061318;28;20053;-57
2023/02/13 09:00:16;;;;;;;24.30;10.75;;;;;;;1.58;100.00;99161.19;5066527;28;20530;-56
2023/02/13 09:02:43;;;;;;;20.75;11.18;;;;;;;1.69;100.00;99155.66;5058233;28;20040;-58
2023/02/13 09:05:09;;;;;;;18.55;10.00;;;;;;;1.81;100.00;99153.59;5065288;28;20036;-57
2023/02/13 09:07:36;;;;;;;18.73;10.52;;;;;;;1.93;100.00;99164.09;5066854;28;20044;-59
2023/02/13 09:10:02;;;;;;;18.77;10.40;;;;;;;2.05;100.00;99162.88;5068016;28;20052;-59
2023/02/13 09:12:29;;;;;;;19.75;10.70;;;;;;;2.18;100.00;99165.16;5065047;28;20032;-59
2023/02/13 09:14:55;;;;;;;19.30;10.02;;;;;;;2.28;100.00;99166.91;5060401;28;20041;-59
2023/02/13 09:17:22;;;;;;;18.90;10.30;;;;;;;2.36;100.00;99163.47;5060863;28;20040;-59
2023/02/13 09:19:48;;;;;;;17.13;10.10;;;;;;;2.50;100.00;99167.44;5061743;28;20036;-57
2023/02/13 09:22:16;;;;;;;18.98;10.25;;;;;;;2.57;100.00;99163.97;5062103;28;20076;-59
2023/02/13 09:24:42;;;;;;;17.20;9.57;;;;;;;2.69;100.00;99167.22;5062618;28;20045;-58
2023/02/13 09:27:09;;;;;;;19.80;9.43;;;;;;;2.82;100.00;99168.66;5062217;28;20048;-57
2023/02/13 09:29:35;;;;;;;17.33;10.30;;;;;;;2.75;100.00;99168.44;5063150;28;20517;-58
2023/02/13 09:32:03;;;;;;;18.67;10.05;;;;;;;2.84;100.00;99164.00;5058644;28;20049;-59
2023/02/13 09:34:30;;;;;;;16.88;9.30;;;;;;;2.87;100.00;99169.00;5064739;28;20083;-57
2023/02/13 09:36:57;;;;;;;15.63;8.50;;;;;;;2.95;100.00;99168.25;5058984;28;20283;-58
2023/02/13 09:39:23;;;;;;;17.73;8.90;;;;;;;3.01;99.27;99162.25;5063894;28;20090;-58
2023/02/13 09:41:52;;;;;;;14.68;8.27;;;;;;;3.04;98.87;99175.31;5062303;28;20064;-56
2023/02/13 09:44:33;;;;;;;16.50;8.95;;;;;;;2.95;99.12;99174.41;5062726;28;20045;-57
2023/02/13 09:47:28;;;;;;;14.55;8.18;;;;;;;3.05;98.57;99178.81;5061642;28;20552;-58
2023/02/13 09:50:01;;;;;;;14.05;8.32;;;;;;;3.03;98.22;99178.16;5062490;28;20037;-58
2023/02/13 09:52:34;;;;;;;16.80;8.15;;;;;;;3.07;97.91;99183.03;5064830;28;20086;-58
2023/02/13 09:55:02;;;;;;;15.00;8.57;;;;;;;3.07;97.73;99185.72;5055291;28;20072;-56
2023/02/13 09:58:04;;;;;;;14.05;8.60;;;;;;;3.17;97.99;99188.25;5064644;28;20128;-58
2023/02/13 10:00:40;;;;;;;15.23;8.75;;;;;;;3.19;97.53;99185.41;5061390;28;20194;-58
2023/02/13 10:03:28;;;;;;;18.48;9.07;;;;;;;3.19;96.74;99191.63;5057760;28;20610;-58
2023/02/13 10:06:09;;;;;;;13.82;8.32;;;;;;;3.14;96.81;99196.63;5054977;28;20645;-59
2023/02/13 10:08:50;;;;;;;14.00;8.35;;;;;;;3.17;96.67;99190.09;5057065;28;20044;-59
2023/02/13 10:11:29;;;;;;;13.68;7.80;;;;;;;3.29;96.72;99191.50;5057112;28;20530;-59
2023/02/13 10:14:17;;;;;;;15.15;9.35;;;;;;;3.34;96.75;99185.66;5056911;28;20087;-58
2023/02/13 10:16:53;;;;;;;14.90;8.82;;;;;;;3.33;96.86;99187.53;5054175;28;20036;-55
2023/02/13 10:19:35;;;;;;;14.68;7.85;;;;;;;3.36;95.81;99189.84;5059105;28;20106;-56
2023/02/13 10:22:23;;;;;;;13.82;7.93;;;;;;;3.40;96.10;99197.56;5059788;28;20562;-59
2023/02/13 10:24:55;;;;;;;13.02;8.40;;;;;;;3.44;95.06;99191.75;5056547;28;20518;-59
2023/02/13 10:27:25;;;;;;;14.63;7.57;;;;;;;3.49;95.12;99186.75;5059516;28;20071;-58
2023/02/13 10:30:11;;;;;;;13.32;7.88;;;;;;;3.63;94.59;99193.34;5051792;28;20462;-59
2023/02/13 10:32:44;;;;;;;9.40;6.30;;;;;;;3.68;94.29;99189.34;5053234;28;20041;-59
2023/02/13 10:35:19;;;;;;;13.88;6.90;;;;;;;3.75;94.16;99182.31;5054984;28;20072;-59
2023/02/13 10:37:50;;;;;;;13.77;6.93;;;;;;;3.81;94.04;99195.06;5056018;28;20071;-59
2023/02/13 10:40:17;;;;;;;14.25;7.38;;;;;;;3.76;92.17;99184.00;5062493;28;20571;-59
2023/02/13 10:43:07;;;;;;;11.05;7.47;;;;;;;3.73;92.51;99184.31;5055792;28;20716;-59
2023/02/13 10:45:52;;;;;;;10.98;6.80;;;;;;;3.80;91.72;99185.34;5059614;28;20056;-59
2023/02/13 10:48:25;;;;;;;12.07;7.25;;;;;;;3.84;90.90;99188.53;5058737;28;20290;-59
2023/02/13 10:51:16;;;;;;;13.27;7.32;;;;;;;3.88;90.61;99179.16;5057265;28;20044;-57
2023/02/13 10:54:27;;;;;;;14.00;6.90;;;;;;;4.01;90.25;99178.69;5055896;28;20064;-58
2023/02/13 10:57:11;;;;;;;15.25;8.30;;;;;;;4.14;88.53;99178.22;5044133;28;20068;-58
2023/02/13 10:59:59;;;;;;;15.63;7.43;;;;;;;4.14;88.07;99173.69;5053629;28;20040;-59
2023/02/13 11:02:31;;;;;;;13.80;8.02;;;;;;;4.19;88.10;99169.66;5051632;28;20047;-59
2023/02/13 11:04:59;;;;;;;;;;;;;;;4.37;88.53;99167.69;5053833;28;20044;-58
2023/02/13 11:07:27;;;;;;;14.30;8.00;;;;;;;4.38;87.45;99163.97;5057626;28;19990;-59
2023/02/13 11:09:59;;;;;;;14.52;8.52;;;;;;;4.47;88.21;99162.16;5055734;28;20093;-59
2023/02/13 11:12:30;;;;;;;13.43;8.00;;;;;;;4.55;88.05;99159.47;5059425;28;20115;-59
2023/02/13 11:15:02;;;;;;;13.87;7.93;;;;;;;4.54;87.14;99157.75;5055626;28;20504;-59
2023/02/13 11:17:32;;;;;;;13.73;7.88;;;;;;;4.66;87.23;99149.38;5056571;28;20359;-59
2023/02/13 11:20:01;;;;;;;13.05;7.85;;;;;;;4.80;86.81;99154.03;5055969;28;20045;-59
2023/02/13 11:22:38;;;;;;;12.85;8.13;;;;;;;4.84;86.11;99151.03;5058580;28;20543;-59
2023/02/13 11:25:22;;;;;;;15.00;7.93;;;;;;;4.97;86.55;99145.97;5058484;28;20513;-57
2023/02/13 11:27:51;;;;;;;14.32;7.93;;;;;;;4.98;85.37;99147.66;5055904;28;20040;-58
2023/02/13 11:30:29;;;;;;;14.18;7.78;;;;;;;5.10;85.08;99140.06;5055110;28;20036;-56
2023/02/13 11:33:01;;;;;;;12.90;7.63;;;;;;;5.04;84.59;99138.91;5052228;28;20120;-59
2023/02/13 11:35:31;;;;;;;14.07;7.47;;;;;;;5.16;84.62;99136.69;5056879;28;20044;-58
2023/02/13 11:38:13;;;;;;;11.95;7.50;;;;;;;5.20;84.41;99129.94;5053192;28;20067;-59
2023/02/13 11:40:43;;;;;;;11.52;7.28;;;;;;;5.25;85.31;99139.34;5057772;28;20044;-60
2023/02/13 11:43:26;;;;;;;13.68;7.65;;;;;;;5.32;84.04;99134.94;5056654;28;20550;-59
2023/02/13 11:46:02;;;;;;;14.13;8.02;;;;;;;5.37;83.94;99142.47;5057384;28;20123;-60
2023/02/13 11:48:31;;;;;;;13.25;7.60;;;;;;;5.38;84.46;99142.31;5057950;28;20055;-59
2023/02/13 11:50:57;;;;;;;12.23;7.68;;;;;;;5.40;83.94;99140.28;5055129;28;20072;-60
2023/02/13 11:53:28;;;;;;;13.68;8.40;;;;;;;5.54;84.51;99146.78;5058844;28;20064;-59
2023/02/13 11:56:09;;;;;;;12.10;7.40;;;;;;;5.67;83.57;99135.44;5056031;28;20051;-55
2023/02/13 11:58:36;;;;;;;11.55;6.95;;;;;;;5.75;83.47;99136.44;5056086;28;20864;-58
2023/02/13 12:01:25;;;;;;;13.95;8.93;;;;;;;5.92;82.23;99134.47;5055255;28;20049;-59
2023/02/13 12:04:17;;;;;;;17.90;8.82;;;;;;;6.08;82.41;99131.69;5052247;28;20037;-57
2023/02/13 12:06:58;;;;;;;;;;;;;;;6.03;80.62;99136.78;5055275;28;20075;-59
2023/02/13 12:09:26;;;;;;;14.38;7.95;;;;;;;6.11;80.52;99134.03;5054481;28;19952;-58
2023/02/13 12:11:56;;;;;;;11.23;7.50;;;;;;;5.99;80.39;99132.75;5053036;28;20094;-59
2023/02/13 12:14:28;;;;;;;12.98;8.25;;;;;;;6.09;80.80;99130.69;5054705;28;20050;-58
2023/02/13 12:17:13;;;;;;;14.57;7.97;;;;;;;6.23;81.56;99130.94;5056263;28;20087;-59
2023/02/13 12:19:56;;;;;;;13.63;8.02;;;;;;;6.33;79.82;99128.81;5056965;28;20124;-59